createdAt,value
2022-12-04T00:00:32.027Z,76.74
2022-12-04T00:03:35.215Z,76.63
2022-12-04T00:06:37.510Z,76.62
2022-12-04T00:09:40.035Z,76.57
2022-12-04T00:12:42.310Z,76.59
2022-12-04T00:15:45.104Z,76.59
2022-12-04T00:18:47.544Z,76.54
2022-12-04T00:21:52.291Z,76.66
2022-12-04T00:24:54.522Z,76.76
2022-12-04T00:27:57.449Z,76.86
2022-12-04T00:30:59.928Z,76.92
2022-12-04T00:34:02.529Z,76.93
2022-12-04T00:37:04.817Z,77.04
2022-12-04T00:40:08.167Z,77.05
2022-12-04T00:43:10.383Z,77.12
2022-12-04T00:46:14.268Z,77.13
2022-12-04T00:49:16.575Z,77.21
2022-12-04T00:52:19.130Z,77.25
2022-12-04T00:55:21.390Z,77.38
2022-12-04T00:58:23.999Z,77.48
2022-12-04T01:01:30.419Z,77.50
2022-12-04T01:04:33.129Z,77.61
2022-12-04T01:07:35.410Z,77.69
2022-12-04T01:10:42.223Z,77.83
2022-12-04T01:13:45.087Z,77.89
2022-12-04T01:16:47.671Z,77.89
2022-12-04T01:19:50.179Z,77.76
2022-12-04T01:22:52.762Z,77.84
2022-12-04T01:25:58.400Z,77.88
2022-12-04T01:29:01.971Z,77.87
2022-12-04T01:32:04.625Z,77.72
2022-12-04T01:35:07.510Z,77.62
2022-12-04T01:38:09.729Z,77.57
2022-12-04T01:41:14.038Z,77.54
2022-12-04T01:44:21.174Z,77.63
2022-12-04T01:47:23.742Z,77.53
2022-12-04T01:50:26.001Z,77.45
2022-12-04T01:53:30.343Z,77.38
2022-12-04T01:56:43.207Z,77.39
2022-12-04T01:59:50.433Z,77.59
2022-12-04T02:02:53.021Z,77.62
2022-12-04T02:05:55.776Z,77.78
2022-12-04T02:08:58.038Z,77.87
2022-12-04T02:12:10.906Z,78.00
2022-12-04T02:15:39.413Z,78.16
2022-12-04T02:19:06.650Z,78.37
2022-12-04T02:22:29.972Z,78.52
2022-12-04T02:25:47.935Z,78.62
2022-12-04T02:28:57.734Z,78.78
2022-12-04T02:32:15.282Z,78.88
2022-12-04T02:35:41.833Z,78.96
2022-12-04T02:38:54.237Z,79.02
2022-12-04T02:42:05.089Z,79.06
2022-12-04T02:45:20.186Z,79.13
2022-12-04T02:48:25.514Z,79.19
2022-12-04T02:51:34.482Z,79.29
2022-12-04T02:54:41.395Z,79.30
2022-12-04T02:57:50.819Z,79.13
2022-12-04T03:00:55.885Z,79.11
2022-12-04T03:04:03.889Z,79.17
2022-12-04T03:07:16.888Z,79.11
2022-12-04T03:10:27.910Z,79.33
2022-12-04T03:13:37.930Z,79.46
2022-12-04T03:16:42.402Z,79.71
2022-12-04T03:19:54.543Z,79.74
2022-12-04T03:23:05.194Z,79.90
2022-12-04T03:26:26.501Z,80.00
2022-12-04T03:29:39.342Z,80.00
2022-12-04T03:33:13.046Z,79.90
2022-12-04T03:36:23.961Z,80.08
2022-12-04T03:39:46.570Z,80.23
2022-12-04T03:42:58.337Z,80.23
2022-12-04T03:46:17.572Z,80.18
2022-12-04T03:49:27.897Z,80.15
2022-12-04T03:52:34.478Z,80.18
2022-12-04T03:55:43.851Z,80.14
2022-12-04T03:58:50.503Z,80.09
2022-12-04T04:01:56.199Z,80.01
2022-12-04T04:05:01.407Z,80.07
2022-12-04T04:08:26.315Z,80.05
2022-12-04T04:11:38.514Z,80.05
2022-12-04T04:15:28.937Z,80.06
2022-12-04T04:18:51.333Z,80.18
2022-12-04T04:22:13.416Z,80.40
2022-12-04T04:25:24.313Z,80.62
2022-12-04T04:28:38.407Z,80.66
2022-12-04T04:31:47.213Z,80.74
2022-12-04T04:35:05.320Z,80.75
2022-12-04T04:38:23.683Z,80.91
2022-12-04T04:41:40.027Z,81.01
2022-12-04T04:45:07.014Z,80.90
2022-12-04T04:48:20.474Z,80.86
2022-12-04T04:51:23.933Z,80.69
2022-12-04T04:54:28.255Z,80.66
2022-12-04T04:57:35.743Z,80.68
2022-12-04T05:00:39.204Z,80.69
2022-12-04T05:03:42.324Z,80.70
2022-12-04T05:06:44.672Z,80.68
2022-12-04T05:09:47.203Z,80.38
2022-12-04T05:12:49.452Z,80.41
2022-12-04T05:16:00.005Z,80.27
2022-12-04T05:19:20.933Z,80.13
2022-12-04T05:22:29.555Z,79.96
2022-12-04T05:25:31.851Z,79.75
2022-12-04T05:28:34.529Z,79.64
2022-12-04T05:31:36.797Z,79.53
2022-12-04T05:34:39.558Z,79.56
2022-12-04T05:37:41.794Z,79.59
2022-12-04T05:40:44.322Z,79.56
2022-12-04T05:43:46.584Z,79.55
2022-12-04T05:46:52.030Z,79.62
2022-12-04T05:49:54.623Z,79.62
2022-12-04T05:52:57.363Z,79.75
2022-12-04T05:56:01.954Z,80.03
2022-12-04T05:59:04.471Z,80.06
2022-12-04T06:02:06.763Z,80.20
2022-12-04T06:05:09.326Z,80.20
2022-12-04T06:08:12.159Z,80.31
2022-12-04T06:11:18.950Z,80.45
2022-12-04T06:14:21.168Z,80.42
2022-12-04T06:17:23.837Z,80.41
2022-12-04T06:20:26.081Z,80.51
2022-12-04T06:23:28.597Z,80.48
2022-12-04T06:26:30.834Z,80.81
2022-12-04T06:29:33.917Z,81.11
2022-12-04T06:32:36.116Z,81.11
2022-12-04T06:35:38.640Z,81.06
2022-12-04T06:38:41.419Z,81.11
2022-12-04T06:41:43.920Z,81.17
2022-12-04T06:44:46.283Z,81.31
2022-12-04T06:47:48.773Z,81.35
2022-12-04T06:50:58.635Z,81.35
2022-12-04T06:54:02.046Z,81.40
2022-12-04T06:57:04.375Z,81.42
2022-12-04T07:00:07.590Z,81.26
2022-12-04T07:03:09.843Z,81.31
2022-12-04T07:06:16.253Z,81.25
2022-12-04T07:09:18.798Z,81.06
2022-12-04T07:12:21.450Z,80.83
2022-12-04T07:15:23.726Z,80.97
2022-12-04T07:18:26.256Z,80.81
2022-12-04T07:21:31.450Z,80.73
2022-12-04T07:24:33.958Z,80.55
2022-12-04T07:27:36.254Z,80.45
2022-12-04T07:30:38.937Z,80.27
2022-12-04T07:33:41.718Z,80.06
2022-12-04T07:36:44.339Z,79.87
2022-12-04T07:39:46.638Z,79.91
2022-12-04T07:42:49.218Z,80.24
2022-12-04T07:45:51.958Z,79.72
2022-12-04T07:48:58.724Z,79.48
2022-12-04T07:52:01.097Z,79.30
2022-12-04T07:55:05.455Z,78.98
2022-12-04T07:58:07.583Z,78.56
2022-12-04T08:01:12.390Z,78.12
2022-12-04T08:04:15.541Z,77.73
2022-12-04T08:07:18.584Z,77.47
2022-12-04T08:10:21.152Z,76.89
2022-12-04T08:13:23.539Z,76.35
2022-12-04T08:16:28.063Z,76.02
2022-12-04T08:19:30.358Z,75.57
2022-12-04T08:22:32.895Z,75.22
2022-12-04T08:25:39.493Z,74.83
2022-12-04T08:28:42.500Z,74.60
2022-12-04T08:31:44.870Z,73.58
2022-12-04T08:34:51.164Z,73.27
2022-12-04T08:37:57.780Z,72.88
2022-12-04T08:41:05.081Z,72.15
2022-12-04T08:44:07.535Z,71.61
2022-12-04T08:47:10.016Z,71.20
2022-12-04T08:50:13.769Z,70.56
2022-12-04T08:53:18.516Z,69.99
2022-12-04T08:56:24.443Z,69.84
2022-12-04T08:59:28.409Z,69.20
2022-12-04T09:02:32.754Z,68.98
2022-12-04T09:05:36.901Z,68.26
2022-12-04T09:08:40.903Z,67.85
2022-12-04T09:11:47.669Z,67.48
2022-12-04T09:14:50.721Z,67.36
2022-12-04T09:17:58.274Z,66.99
2022-12-04T09:21:05.930Z,67.12
2022-12-04T09:24:09.541Z,66.74
2022-12-04T09:27:14.864Z,66.22
2022-12-04T09:30:18.498Z,65.58
2022-12-04T09:33:22.240Z,64.80
2022-12-04T09:36:25.434Z,64.21
2022-12-04T09:39:27.695Z,63.57
2022-12-04T09:42:30.194Z,62.67
2022-12-04T09:45:50.210Z,62.02
2022-12-04T09:48:53.902Z,62.49
2022-12-04T09:52:00.611Z,61.89
2022-12-04T09:55:05.409Z,62.06
2022-12-04T09:58:14.170Z,61.40
2022-12-04T10:01:32.879Z,61.44
2022-12-04T10:04:35.475Z,60.29
2022-12-04T10:07:53.376Z,58.98
2022-12-04T10:11:13.829Z,57.69
2022-12-04T10:14:50.191Z,55.70
2022-12-04T10:18:04.375Z,55.00
2022-12-04T10:21:06.706Z,54.76
2022-12-04T10:24:36.301Z,54.18
2022-12-04T10:27:47.047Z,53.36
2022-12-04T10:30:52.559Z,52.83
2022-12-04T10:34:13.546Z,52.19
2022-12-04T10:37:16.605Z,51.25
2022-12-04T10:40:25.216Z,49.97
2022-12-04T10:43:45.058Z,48.41
2022-12-04T10:46:48.226Z,47.47
2022-12-04T10:49:59.684Z,46.73
2022-12-04T10:53:01.966Z,45.83
2022-12-04T10:56:28.628Z,45.19
2022-12-04T10:59:31.268Z,44.32
2022-12-04T11:02:34.691Z,44.52
2022-12-04T11:05:55.408Z,44.02
2022-12-04T11:08:59.465Z,43.92
2022-12-04T11:12:16.762Z,44.71
2022-12-04T11:15:19.399Z,44.01
2022-12-04T11:18:28.244Z,43.82
2022-12-04T11:21:32.405Z,43.76
2022-12-04T11:24:35.689Z,44.01
2022-12-04T11:27:38.137Z,43.79
2022-12-04T11:30:40.604Z,43.99
2022-12-04T11:33:54.537Z,44.70
2022-12-04T11:36:57.820Z,46.07
2022-12-04T11:40:03.471Z,47.07
2022-12-04T11:43:13.915Z,48.64
2022-12-04T11:46:22.371Z,49.83
2022-12-04T11:49:26.955Z,51.11
2022-12-04T11:52:43.698Z,51.83
2022-12-04T11:56:05.072Z,51.91
2022-12-04T11:59:32.506Z,52.24
2022-12-04T12:02:50.405Z,52.39
2022-12-04T12:05:53.809Z,52.95
2022-12-04T12:09:14.375Z,53.45
2022-12-04T12:12:35.293Z,54.10
2022-12-04T12:16:03.483Z,54.51
2022-12-04T12:19:33.236Z,54.66
2022-12-04T12:23:19.871Z,54.96
2022-12-04T12:26:26.792Z,54.97
2022-12-04T12:29:32.520Z,55.57
2022-12-04T12:33:14.333Z,56.07
2022-12-04T12:36:21.648Z,55.58
2022-12-04T12:39:31.554Z,56.41
2022-12-04T12:42:44.881Z,56.95
2022-12-04T12:46:18.234Z,56.67
2022-12-04T12:49:32.251Z,57.46
2022-12-04T12:52:47.867Z,58.05
2022-12-04T12:55:54.143Z,58.36
2022-12-04T12:59:00.730Z,58.80
2022-12-04T13:02:30.278Z,59.06
2022-12-04T13:05:40.960Z,58.83
2022-12-04T13:08:52.815Z,59.33
2022-12-04T13:12:15.812Z,59.32
2022-12-04T13:15:24.535Z,59.18
2022-12-04T13:18:32.349Z,59.68
2022-12-04T13:21:46.842Z,60.01
2022-12-04T13:24:55.885Z,59.80
2022-12-04T13:28:31.503Z,60.41
2022-12-04T13:31:38.416Z,60.72
2022-12-04T13:35:10.083Z,61.25
2022-12-04T13:38:28.878Z,61.49
2022-12-04T13:41:38.809Z,62.35
2022-12-04T13:44:41.388Z,62.61
2022-12-04T13:47:43.663Z,63.00
2022-12-04T13:50:46.240Z,63.16
2022-12-04T13:53:48.695Z,63.63
2022-12-04T13:56:55.495Z,63.88
2022-12-04T14:00:24.472Z,64.03
2022-12-04T14:03:34.629Z,64.43
2022-12-04T14:06:41.338Z,65.14
2022-12-04T14:09:53.258Z,65.09
2022-12-04T14:13:00.960Z,65.56
2022-12-04T14:16:15.793Z,65.96
2022-12-04T14:19:39.193Z,66.15
2022-12-04T14:22:44.247Z,66.58
2022-12-04T14:25:46.544Z,66.60
2022-12-04T14:28:50.447Z,66.39
2022-12-04T14:31:55.123Z,67.13
2022-12-04T14:34:58.995Z,67.56
2022-12-04T14:38:04.064Z,67.77
2022-12-04T14:41:06.845Z,68.09
2022-12-04T14:44:25.686Z,68.21
2022-12-04T14:47:54.327Z,68.40
2022-12-04T14:50:56.549Z,68.68
2022-12-04T14:54:17.611Z,68.83
2022-12-04T14:57:38.276Z,69.20
2022-12-04T15:00:50.325Z,69.11
2022-12-04T15:03:59.099Z,69.42
2022-12-04T15:07:02.540Z,69.59
2022-12-04T15:10:38.213Z,69.68
2022-12-04T15:13:41.179Z,69.89
2022-12-04T15:16:43.602Z,69.69
2022-12-04T15:19:46.339Z,70.09
2022-12-04T15:22:49.073Z,70.05
2022-12-04T15:25:54.528Z,70.41
2022-12-04T15:29:01.408Z,70.43
2022-12-04T15:32:12.006Z,70.52
2022-12-04T15:35:23.266Z,70.70
2022-12-04T15:38:26.609Z,70.82
2022-12-04T15:41:30.906Z,71.07
2022-12-04T15:44:35.349Z,70.91
2022-12-04T15:47:58.795Z,71.09
2022-12-04T15:51:07.139Z,71.34
2022-12-04T15:54:24.492Z,71.16
2022-12-04T15:57:31.379Z,71.57
2022-12-04T16:00:45.495Z,71.57
2022-12-04T16:03:51.266Z,71.82
2022-12-04T16:06:53.863Z,71.71
2022-12-04T16:10:03.548Z,71.62
2022-12-04T16:13:06.783Z,72.04
2022-12-04T16:16:14.546Z,72.08
2022-12-04T16:19:29.065Z,72.35
2022-12-04T16:22:32.138Z,72.56
2022-12-04T16:25:34.688Z,72.50
2022-12-04T16:28:37.258Z,72.63
2022-12-04T16:31:39.595Z,72.61
2022-12-04T16:34:42.264Z,72.62
2022-12-04T16:37:44.577Z,72.75
2022-12-04T16:40:48.536Z,72.62
2022-12-04T16:43:56.725Z,72.89
2022-12-04T16:46:59.330Z,72.75
2022-12-04T16:50:01.701Z,72.90
2022-12-04T16:53:04.269Z,72.86
2022-12-04T16:56:06.721Z,72.97
2022-12-04T16:59:12.201Z,73.11
2022-12-04T17:02:23.429Z,73.12
2022-12-04T17:05:29.212Z,73.09
2022-12-04T17:08:31.999Z,73.01
2022-12-04T17:11:34.610Z,72.97
2022-12-04T17:14:36.894Z,73.22
2022-12-04T17:17:40.200Z,73.17
2022-12-04T17:20:43.788Z,73.05
2022-12-04T17:23:46.424Z,73.07
2022-12-04T17:26:48.805Z,73.20
2022-12-04T17:29:51.490Z,73.08
2022-12-04T17:32:53.791Z,73.18
2022-12-04T17:36:00.309Z,73.26
2022-12-04T17:39:02.731Z,73.51
2022-12-04T17:42:05.336Z,73.75
2022-12-04T17:45:09.537Z,74.27
2022-12-04T17:48:12.205Z,73.88
2022-12-04T17:51:20.082Z,73.87
2022-12-04T17:54:23.044Z,74.00
2022-12-04T17:57:25.396Z,74.14
2022-12-04T18:00:28.041Z,74.35
2022-12-04T18:03:30.816Z,74.53
2022-12-04T18:06:44.291Z,74.55
2022-12-04T18:09:48.085Z,75.08
2022-12-04T18:12:50.607Z,75.11
2022-12-04T18:15:53.396Z,75.19
2022-12-04T18:18:57.093Z,75.51
2022-12-04T18:21:59.926Z,75.65
2022-12-04T18:25:02.531Z,75.72
2022-12-04T18:28:05.252Z,75.53
2022-12-04T18:31:08.677Z,75.39
2022-12-04T18:34:14.276Z,75.29
2022-12-04T18:37:16.571Z,75.36
2022-12-04T18:40:22.131Z,75.57
2022-12-04T18:43:24.538Z,75.65
2022-12-04T18:46:27.251Z,75.96
2022-12-04T18:49:29.725Z,75.68
2022-12-04T18:52:35.792Z,75.76
2022-12-04T18:55:38.571Z,75.50
2022-12-04T18:58:41.430Z,75.54
2022-12-04T19:01:44.250Z,75.82
2022-12-04T19:04:46.897Z,75.99
2022-12-04T19:07:50.441Z,76.22
2022-12-04T19:10:53.050Z,76.22
2022-12-04T19:13:55.745Z,76.41
2022-12-04T19:16:58.491Z,76.54
2022-12-04T19:20:01.620Z,76.83
2022-12-04T19:23:04.224Z,76.80
2022-12-04T19:26:06.724Z,76.66
2022-12-04T19:29:12.887Z,76.54
2022-12-04T19:32:15.321Z,76.52
2022-12-04T19:35:17.933Z,76.66
2022-12-04T19:38:20.221Z,76.66
2022-12-04T19:41:25.826Z,76.55
2022-12-04T19:47:50.801Z,76.21
2022-12-04T19:50:54.211Z,76.00
2022-12-04T19:53:56.773Z,75.86
2022-12-04T19:56:59.013Z,75.95
2022-12-04T20:00:02.113Z,76.11
2022-12-04T20:03:13.917Z,76.10
2022-12-04T20:06:19.375Z,75.96
2022-12-04T20:09:22.420Z,76.24
2022-12-04T20:12:25.052Z,76.16
2022-12-04T20:15:27.260Z,76.46
2022-12-04T20:18:30.186Z,76.26
2022-12-04T20:21:32.843Z,76.24
2022-12-04T20:24:35.659Z,76.37
2022-12-04T20:27:37.960Z,76.44
2022-12-04T20:30:40.906Z,76.63
2022-12-04T20:33:44.160Z,76.35
2022-12-04T20:36:51.224Z,76.51
2022-12-04T20:39:56.898Z,76.60
2022-12-04T20:42:59.711Z,76.52
2022-12-04T20:46:02.176Z,76.63
2022-12-04T20:49:08.010Z,76.54
2022-12-04T20:52:11.182Z,76.59
2022-12-04T20:55:13.741Z,76.96
2022-12-04T20:58:16.020Z,76.70
2022-12-04T21:01:19.392Z,76.96
2022-12-04T21:04:22.126Z,77.30
2022-12-04T21:07:24.857Z,77.05
2022-12-04T21:10:27.262Z,77.02
2022-12-04T21:13:48.388Z,76.62
2022-12-04T21:16:51.076Z,76.80
2022-12-04T21:19:53.642Z,76.73
2022-12-04T21:22:56.119Z,76.81
2022-12-04T21:25:58.651Z,76.61
2022-12-04T21:29:02.272Z,76.62
2022-12-04T21:32:06.229Z,76.62
2022-12-04T21:35:08.818Z,76.75
2022-12-04T21:38:11.303Z,76.56
2022-12-04T21:41:36.613Z,76.74
2022-12-04T21:44:39.218Z,76.75
2022-12-04T21:47:41.546Z,76.73
2022-12-04T21:50:44.147Z,76.75
2022-12-04T21:53:46.473Z,76.70
2022-12-04T21:56:48.999Z,76.85
2022-12-04T21:59:52.382Z,76.79
2022-12-04T22:02:54.996Z,76.74
2022-12-04T22:05:59.994Z,76.84
2022-12-04T22:09:03.945Z,76.69
2022-12-04T22:12:26.275Z,76.69
2022-12-04T22:15:29.107Z,76.67
2022-12-04T22:18:33.596Z,76.69
2022-12-04T22:21:35.841Z,76.60
2022-12-04T22:24:38.378Z,76.43
2022-12-04T22:27:40.732Z,76.11
2022-12-04T22:30:43.607Z,75.82
2022-12-04T22:33:48.204Z,75.75
2022-12-04T22:36:50.893Z,75.65
2022-12-04T22:39:53.163Z,75.66
2022-12-04T22:42:55.686Z,75.54
2022-12-04T22:45:58.863Z,75.37
2022-12-04T22:49:01.437Z,75.10
2022-12-04T22:52:03.829Z,74.79
2022-12-04T22:55:06.571Z,74.42
2022-12-04T22:58:08.802Z,73.84
2022-12-04T23:01:22.675Z,74.00
2022-12-04T23:04:24.961Z,73.76
2022-12-04T23:07:27.462Z,73.61
2022-12-04T23:10:29.810Z,73.48
2022-12-04T23:13:32.384Z,73.54
2022-12-04T23:16:37.096Z,73.53
2022-12-04T23:19:39.695Z,73.35
2022-12-04T23:22:41.961Z,73.14
2022-12-04T23:25:44.468Z,73.19
2022-12-04T23:28:47.391Z,73.03
2022-12-04T23:31:50.006Z,72.96
2022-12-04T23:34:53.131Z,73.00
2022-12-04T23:37:55.659Z,72.99
2022-12-04T23:41:03.000Z,72.88
2022-12-04T23:44:05.519Z,73.00
2022-12-04T23:47:07.732Z,72.90
2022-12-04T23:50:10.598Z,72.81
2022-12-04T23:53:13.114Z,72.91
2022-12-04T23:56:17.425Z,72.94
2022-12-04T23:59:21.324Z,72.90
